sensor_id;sensor_type;location;lat;lon;timestamp;P1;P2;P0
55304;PMS7003;65692;51.378;19.824;2023-12-20T00:01:30;34.67;25.33;17.33
55304;PMS7003;65692;51.378;19.824;2023-12-20T00:03:57;28.33;21.33;16.67
55304;PMS7003;65692;51.378;19.824;2023-12-20T00:06:23;24.67;19.00;13.00
55304;PMS7003;65692;51.378;19.824;2023-12-20T00:08:50;23.67;21.33;15.33
55304;PMS7003;65692;51.378;19.824;2023-12-20T00:11:17;31.67;24.00;16.67
55304;PMS7003;65692;51.378;19.824;2023-12-20T00:13:43;22.33;21.67;15.67
55304;PMS7003;65692;51.378;19.824;2023-12-20T00:16:13;21.33;18.33;12.00
55304;PMS7003;65692;51.378;19.824;2023-12-20T00:18:40;25.33;23.00;15.00
55304;PMS7003;65692;51.378;19.824;2023-12-20T00:21:06;25.00;24.67;17.67
55304;PMS7003;65692;51.378;19.824;2023-12-20T00:23:33;27.00;23.00;17.33
55304;PMS7003;65692;51.378;19.824;2023-12-20T00:26:00;25.33;21.33;15.33
55304;PMS7003;65692;51.378;19.824;2023-12-20T00:28:26;22.33;19.00;15.00
55304;PMS7003;65692;51.378;19.824;2023-12-20T00:30:53;25.33;23.33;17.67
55304;PMS7003;65692;51.378;19.824;2023-12-20T00:33:20;28.33;19.00;15.00
55304;PMS7003;65692;51.378;19.824;2023-12-20T00:35:47;21.00;9.00;2.00
55304;PMS7003;65692;51.378;19.824;2023-12-20T00:38:13;25.33;25.00;18.67
55304;PMS7003;65692;51.378;19.824;2023-12-20T00:40:40;16.33;14.67;9.00
55304;PMS7003;65692;51.378;19.824;2023-12-20T00:43:07;21.00;15.00;10.33
55304;PMS7003;65692;51.378;19.824;2023-12-20T00:45:34;25.33;22.00;16.33
55304;PMS7003;65692;51.378;19.824;2023-12-20T00:48:00;24.67;19.33;16.67
55304;PMS7003;65692;51.378;19.824;2023-12-20T00:50:27;31.33;24.33;16.67
55304;PMS7003;65692;51.378;19.824;2023-12-20T00:52:55;28.67;24.67;17.67
55304;PMS7003;65692;51.378;19.824;2023-12-20T00:55:22;29.33;25.67;19.33
55304;PMS7003;65692;51.378;19.824;2023-12-20T00:57:49;33.00;28.00;20.33
55304;PMS7003;65692;51.378;19.824;2023-12-20T01:00:16;42.67;30.67;24.00
55304;PMS7003;65692;51.378;19.824;2023-12-20T01:02:43;37.67;31.33;21.67
55304;PMS7003;65692;51.378;19.824;2023-12-20T01:05:10;34.00;31.00;22.00
55304;PMS7003;65692;51.378;19.824;2023-12-20T01:07:36;26.00;21.67;16.00
55304;PMS7003;65692;51.378;19.824;2023-12-20T01:10:03;22.33;17.67;14.67
55304;PMS7003;65692;51.378;19.824;2023-12-20T01:12:30;26.75;19.00;13.00
55304;PMS7003;65692;51.378;19.824;2023-12-20T01:14:56;27.50;24.25;20.25
55304;PMS7003;65692;51.378;19.824;2023-12-20T01:17:25;29.50;23.50;18.75
55304;PMS7003;65692;51.378;19.824;2023-12-20T01:19:51;27.75;24.25;18.00
55304;PMS7003;65692;51.378;19.824;2023-12-20T01:22:19;32.50;24.75;18.25
55304;PMS7003;65692;51.378;19.824;2023-12-20T01:24:45;25.00;22.67;18.33
55304;PMS7003;65692;51.378;19.824;2023-12-20T01:27:12;27.00;24.33;19.00
55304;PMS7003;65692;51.378;19.824;2023-12-20T01:29:38;35.67;29.33;21.00
55304;PMS7003;65692;51.378;19.824;2023-12-20T01:32:05;29.67;27.00;21.67
55304;PMS7003;65692;51.378;19.824;2023-12-20T01:34:32;30.67;21.00;15.33
55304;PMS7003;65692;51.378;19.824;2023-12-20T01:36:58;29.00;21.33;17.67
55304;PMS7003;65692;51.378;19.824;2023-12-20T01:39:27;36.33;27.33;19.33
55304;PMS7003;65692;51.378;19.824;2023-12-20T01:41:55;33.00;29.00;20.00
55304;PMS7003;65692;51.378;19.824;2023-12-20T01:44:22;31.33;23.33;18.67
55304;PMS7003;65692;51.378;19.824;2023-12-20T01:46:48;33.67;26.67;19.33
55304;PMS7003;65692;51.378;19.824;2023-12-20T01:49:15;32.67;25.00;19.00
55304;PMS7003;65692;51.378;19.824;2023-12-20T01:51:42;31.00;26.00;19.33
55304;PMS7003;65692;51.378;19.824;2023-12-20T01:54:09;27.00;23.67;19.00
55304;PMS7003;65692;51.378;19.824;2023-12-20T01:56:36;32.00;27.33;19.67
55304;PMS7003;65692;51.378;19.824;2023-12-20T01:59:02;29.33;23.67;16.33
55304;PMS7003;65692;51.378;19.824;2023-12-20T02:01:31;35.00;25.00;19.00
55304;PMS7003;65692;51.378;19.824;2023-12-20T02:03:58;28.33;26.67;20.67
55304;PMS7003;65692;51.378;19.824;2023-12-20T02:06:26;26.67;25.00;19.00
55304;PMS7003;65692;51.378;19.824;2023-12-20T02:08:55;30.00;26.33;19.67
55304;PMS7003;65692;51.378;19.824;2023-12-20T02:11:22;34.67;27.33;20.00
55304;PMS7003;65692;51.378;19.824;2023-12-20T02:13:48;31.67;25.00;18.33
55304;PMS7003;65692;51.378;19.824;2023-12-20T02:16:15;32.67;25.67;20.00
55304;PMS7003;65692;51.378;19.824;2023-12-20T02:18:42;32.33;27.33;19.67
55304;PMS7003;65692;51.378;19.824;2023-12-20T02:21:10;30.33;28.67;19.00
55304;PMS7003;65692;51.378;19.824;2023-12-20T02:23:37;31.33;30.33;21.00
55304;PMS7003;65692;51.378;19.824;2023-12-20T02:26:04;31.67;26.00;18.67
55304;PMS7003;65692;51.378;19.824;2023-12-20T02:28:30;31.33;25.00;21.00
55304;PMS7003;65692;51.378;19.824;2023-12-20T02:30:58;31.67;28.00;19.00
55304;PMS7003;65692;51.378;19.824;2023-12-20T02:33:25;33.67;26.00;17.67
55304;PMS7003;65692;51.378;19.824;2023-12-20T02:35:51;25.50;24.50;18.00
55304;PMS7003;65692;51.378;19.824;2023-12-20T02:38:19;29.67;26.33;19.33
55304;PMS7003;65692;51.378;19.824;2023-12-20T02:40:45;25.33;19.00;13.00
55304;PMS7003;65692;51.378;19.824;2023-12-20T02:43:15;35.67;26.00;19.00
55304;PMS7003;65692;51.378;19.824;2023-12-20T02:45:42;31.33;27.00;20.00
55304;PMS7003;65692;51.378;19.824;2023-12-20T02:48:09;35.33;31.33;24.33
55304;PMS7003;65692;51.378;19.824;2023-12-20T02:50:36;36.00;28.33;20.33
55304;PMS7003;65692;51.378;19.824;2023-12-20T02:53:03;32.00;28.67;21.00
55304;PMS7003;65692;51.378;19.824;2023-12-20T02:55:29;32.33;26.67;20.33
55304;PMS7003;65692;51.378;19.824;2023-12-20T02:57:56;30.67;25.33;18.00
55304;PMS7003;65692;51.378;19.824;2023-12-20T03:00:23;31.67;26.67;19.00
55304;PMS7003;65692;51.378;19.824;2023-12-20T03:02:49;28.00;22.33;18.00
55304;PMS7003;65692;51.378;19.824;2023-12-20T03:05:16;30.67;19.33;16.00
55304;PMS7003;65692;51.378;19.824;2023-12-20T03:07:43;25.33;25.00;15.67
55304;PMS7003;65692;51.378;19.824;2023-12-20T03:10:10;31.33;24.67;17.00
55304;PMS7003;65692;51.378;19.824;2023-12-20T03:12:49;29.67;24.33;19.67
55304;PMS7003;65692;51.378;19.824;2023-12-20T03:15:15;23.33;19.33;15.67
55304;PMS7003;65692;51.378;19.824;2023-12-20T03:17:42;25.50;15.75;13.50
55304;PMS7003;65692;51.378;19.824;2023-12-20T03:20:09;21.25;18.50;14.75
55304;PMS7003;65692;51.378;19.824;2023-12-20T03:22:36;17.25;15.75;11.25
55304;PMS7003;65692;51.378;19.824;2023-12-20T03:25:02;21.50;17.75;15.25
55304;PMS7003;65692;51.378;19.824;2023-12-20T03:27:29;20.50;16.50;13.75
55304;PMS7003;65692;51.378;19.824;2023-12-20T03:29:56;19.25;15.75;11.75
55304;PMS7003;65692;51.378;19.824;2023-12-20T03:32:22;24.25;19.75;15.00
55304;PMS7003;65692;51.378;19.824;2023-12-20T03:34:49;20.25;17.00;14.25
55304;PMS7003;65692;51.378;19.824;2023-12-20T03:37:16;21.00;17.75;14.50
55304;PMS7003;65692;51.378;19.824;2023-12-20T03:39:43;21.75;18.00;12.00
55304;PMS7003;65692;51.378;19.824;2023-12-20T03:42:09;19.00;15.25;10.00
55304;PMS7003;65692;51.378;19.824;2023-12-20T03:44:38;22.75;16.00;12.00
55304;PMS7003;65692;51.378;19.824;2023-12-20T03:47:05;18.75;16.25;11.50
55304;PMS7003;65692;51.378;19.824;2023-12-20T03:49:32;24.00;18.00;13.00
55304;PMS7003;65692;51.378;19.824;2023-12-20T03:51:59;21.75;17.25;15.00
55304;PMS7003;65692;51.378;19.824;2023-12-20T03:54:26;16.25;15.75;12.00
55304;PMS7003;65692;51.378;19.824;2023-12-20T03:56:52;22.50;17.75;13.00
55304;PMS7003;65692;51.378;19.824;2023-12-20T03:59:19;17.50;14.75;12.00
55304;PMS7003;65692;51.378;19.824;2023-12-20T04:01:46;20.25;16.50;13.00
55304;PMS7003;65692;51.378;19.824;2023-12-20T04:04:13;18.75;16.00;13.00
55304;PMS7003;65692;51.378;19.824;2023-12-20T04:06:40;24.50;18.25;13.75
55304;PMS7003;65692;51.378;19.824;2023-12-20T04:09:07;15.50;11.75;8.75
55304;PMS7003;65692;51.378;19.824;2023-12-20T04:11:36;17.00;13.75;11.00
55304;PMS7003;65692;51.378;19.824;2023-12-20T04:14:03;19.00;15.00;13.00
55304;PMS7003;65692;51.378;19.824;2023-12-20T04:16:31;21.25;17.75;13.50
55304;PMS7003;65692;51.378;19.824;2023-12-20T04:18:57;30.33;18.33;13.67
55304;PMS7003;65692;51.378;19.824;2023-12-20T04:21:24;14.00;13.00;11.25
55304;PMS7003;65692;51.378;19.824;2023-12-20T04:23:51;18.33;18.00;11.00
55304;PMS7003;65692;51.378;19.824;2023-12-20T04:26:17;20.00;18.50;13.25
55304;PMS7003;65692;51.378;19.824;2023-12-20T04:28:44;18.50;16.00;13.25
55304;PMS7003;65692;51.378;19.824;2023-12-20T04:31:11;14.25;12.00;8.00
55304;PMS7003;65692;51.378;19.824;2023-12-20T04:33:37;19.50;15.50;12.00
55304;PMS7003;65692;51.378;19.824;2023-12-20T04:36:04;16.50;15.75;13.50
55304;PMS7003;65692;51.378;19.824;2023-12-20T04:38:31;19.75;16.75;11.50
55304;PMS7003;65692;51.378;19.824;2023-12-20T04:40:57;22.50;17.50;14.75
55304;PMS7003;65692;51.378;19.824;2023-12-20T04:43:24;17.25;10.50;7.00
55304;PMS7003;65692;51.378;19.824;2023-12-20T04:45:51;24.75;16.00;14.25
55304;PMS7003;65692;51.378;19.824;2023-12-20T04:48:18;12.75;11.75;8.75
55304;PMS7003;65692;51.378;19.824;2023-12-20T04:50:44;20.50;18.50;15.50
55304;PMS7003;65692;51.378;19.824;2023-12-20T04:53:11;20.25;15.75;13.00
55304;PMS7003;65692;51.378;19.824;2023-12-20T04:55:38;12.50;12.50;12.25
55304;PMS7003;65692;51.378;19.824;2023-12-20T04:58:05;19.00;16.00;12.00
55304;PMS7003;65692;51.378;19.824;2023-12-20T05:00:32;18.50;17.50;12.25
55304;PMS7003;65692;51.378;19.824;2023-12-20T05:02:59;21.00;15.00;12.00
55304;PMS7003;65692;51.378;19.824;2023-12-20T05:05:26;21.00;15.50;11.00
55304;PMS7003;65692;51.378;19.824;2023-12-20T05:07:53;19.00;18.25;13.75
55304;PMS7003;65692;51.378;19.824;2023-12-20T05:10:19;15.00;12.75;11.25
55304;PMS7003;65692;51.378;19.824;2023-12-20T05:12:46;22.00;18.00;14.00
55304;PMS7003;65692;51.378;19.824;2023-12-20T05:15:13;16.75;15.25;12.00
55304;PMS7003;65692;51.378;19.824;2023-12-20T05:17:42;18.25;15.50;12.25
55304;PMS7003;65692;51.378;19.824;2023-12-20T05:20:09;23.75;14.00;12.00
55304;PMS7003;65692;51.378;19.824;2023-12-20T05:22:37;23.25;16.75;12.50
55304;PMS7003;65692;51.378;19.824;2023-12-20T05:25:03;26.00;18.00;15.00
55304;PMS7003;65692;51.378;19.824;2023-12-20T05:27:31;21.75;18.50;14.75
55304;PMS7003;65692;51.378;19.824;2023-12-20T05:29:57;18.25;17.75;13.00
55304;PMS7003;65692;51.378;19.824;2023-12-20T05:32:24;17.75;16.00;12.75
55304;PMS7003;65692;51.378;19.824;2023-12-20T05:34:51;19.25;16.25;12.00
55304;PMS7003;65692;51.378;19.824;2023-12-20T05:37:18;21.25;18.75;13.50
55304;PMS7003;65692;51.378;19.824;2023-12-20T05:39:45;18.50;15.00;11.25
55304;PMS7003;65692;51.378;19.824;2023-12-20T05:42:12;18.75;13.25;9.50
55304;PMS7003;65692;51.378;19.824;2023-12-20T05:44:39;16.75;15.75;11.75
55304;PMS7003;65692;51.378;19.824;2023-12-20T05:47:05;18.50;10.00;8.75
55304;PMS7003;65692;51.378;19.824;2023-12-20T05:49:32;12.50;12.50;10.00
55304;PMS7003;65692;51.378;19.824;2023-12-20T05:51:58;17.00;14.75;12.00
55304;PMS7003;65692;51.378;19.824;2023-12-20T05:54:25;20.00;18.00;12.00
55304;PMS7003;65692;51.378;19.824;2023-12-20T05:56:52;18.25;15.50;12.00
55304;PMS7003;65692;51.378;19.824;2023-12-20T05:59:19;17.00;11.75;9.50
55304;PMS7003;65692;51.378;19.824;2023-12-20T06:01:45;14.25;12.00;9.00
55304;PMS7003;65692;51.378;19.824;2023-12-20T06:04:12;11.75;10.00;8.50
55304;PMS7003;65692;51.378;19.824;2023-12-20T06:06:42;19.00;15.00;10.50
55304;PMS7003;65692;51.378;19.824;2023-12-20T06:09:09;16.00;12.25;10.00
55304;PMS7003;65692;51.378;19.824;2023-12-20T06:11:36;15.00;13.50;10.50
55304;PMS7003;65692;51.378;19.824;2023-12-20T06:14:03;17.00;14.50;11.25
55304;PMS7003;65692;51.378;19.824;2023-12-20T06:16:30;23.25;16.50;10.75
55304;PMS7003;65692;51.378;19.824;2023-12-20T06:18:57;17.25;14.25;11.00
55304;PMS7003;65692;51.378;19.824;2023-12-20T06:21:24;13.50;12.50;10.00
55304;PMS7003;65692;51.378;19.824;2023-12-20T06:23:51;14.50;12.25;9.00
55304;PMS7003;65692;51.378;19.824;2023-12-20T06:26:17;14.25;10.50;6.50
55304;PMS7003;65692;51.378;19.824;2023-12-20T06:28:44;14.25;12.25;8.50
55304;PMS7003;65692;51.378;19.824;2023-12-20T06:31:11;15.00;12.75;10.00
55304;PMS7003;65692;51.378;19.824;2023-12-20T06:33:38;18.50;15.25;12.00
55304;PMS7003;65692;51.378;19.824;2023-12-20T06:36:07;19.75;14.50;12.50
55304;PMS7003;65692;51.378;19.824;2023-12-20T06:38:37;17.75;15.00;11.25
55304;PMS7003;65692;51.378;19.824;2023-12-20T06:41:03;16.25;15.75;11.75
55304;PMS7003;65692;51.378;19.824;2023-12-20T06:43:30;19.50;15.75;11.75
55304;PMS7003;65692;51.378;19.824;2023-12-20T06:46:14;17.75;13.75;11.75
55304;PMS7003;65692;51.378;19.824;2023-12-20T06:48:41;16.50;12.50;10.00
55304;PMS7003;65692;51.378;19.824;2023-12-20T06:51:11;13.25;12.75;11.00
55304;PMS7003;65692;51.378;19.824;2023-12-20T06:53:37;14.50;11.00;9.00
55304;PMS7003;65692;51.378;19.824;2023-12-20T06:56:04;9.50;9.50;6.25
55304;PMS7003;65692;51.378;19.824;2023-12-20T06:58:31;13.25;11.75;8.75
55304;PMS7003;65692;51.378;19.824;2023-12-20T07:00:58;15.00;12.25;9.00
55304;PMS7003;65692;51.378;19.824;2023-12-20T07:03:24;12.00;10.00;8.00
55304;PMS7003;65692;51.378;19.824;2023-12-20T07:05:51;17.00;14.25;10.00
55304;PMS7003;65692;51.378;19.824;2023-12-20T07:08:18;16.50;14.25;9.50
55304;PMS7003;65692;51.378;19.824;2023-12-20T07:10:46;15.75;12.25;9.75
55304;PMS7003;65692;51.378;19.824;2023-12-20T07:13:12;14.50;12.25;11.00
55304;PMS7003;65692;51.378;19.824;2023-12-20T07:15:39;14.75;14.00;9.50
55304;PMS7003;65692;51.378;19.824;2023-12-20T07:18:07;13.50;11.25;9.00
55304;PMS7003;65692;51.378;19.824;2023-12-20T07:20:33;16.00;15.00;9.00
55304;PMS7003;65692;51.378;19.824;2023-12-20T07:23:00;10.00;9.00;7.75
55304;PMS7003;65692;51.378;19.824;2023-12-20T07:25:27;17.75;11.75;9.50
55304;PMS7003;65692;51.378;19.824;2023-12-20T07:27:54;1.00;1.00;0.00
55304;PMS7003;65692;51.378;19.824;2023-12-20T07:30:21;11.00;9.50;8.25
55304;PMS7003;65692;51.378;19.824;2023-12-20T07:32:47;8.25;8.25;6.25
55304;PMS7003;65692;51.378;19.824;2023-12-20T07:35:15;12.50;9.25;7.50
55304;PMS7003;65692;51.378;19.824;2023-12-20T07:37:42;13.00;8.00;5.00
55304;PMS7003;65692;51.378;19.824;2023-12-20T07:40:09;11.25;8.25;7.00
55304;PMS7003;65692;51.378;19.824;2023-12-20T07:42:36;7.00;7.00;6.00
55304;PMS7003;65692;51.378;19.824;2023-12-20T07:45:03;11.25;10.00;8.00
55304;PMS7003;65692;51.378;19.824;2023-12-20T07:47:30;9.75;8.50;7.50
55304;PMS7003;65692;51.378;19.824;2023-12-20T07:49:56;6.00;6.00;4.75
55304;PMS7003;65692;51.378;19.824;2023-12-20T07:52:24;8.00;8.00;5.75
55304;PMS7003;65692;51.378;19.824;2023-12-20T07:54:50;7.75;7.75;5.00
55304;PMS7003;65692;51.378;19.824;2023-12-20T07:57:17;7.50;7.50;5.75
55304;PMS7003;65692;51.378;19.824;2023-12-20T07:59:44;5.00;5.00;4.00
55304;PMS7003;65692;51.378;19.824;2023-12-20T08:02:11;8.50;8.00;5.00
55304;PMS7003;65692;51.378;19.824;2023-12-20T08:04:38;10.75;5.75;5.50
55304;PMS7003;65692;51.378;19.824;2023-12-20T08:07:05;10.00;7.75;5.50
55304;PMS7003;65692;51.378;19.824;2023-12-20T08:09:31;11.00;8.50;7.00
55304;PMS7003;65692;51.378;19.824;2023-12-20T08:12:00;8.75;7.25;5.00
55304;PMS7003;65692;51.378;19.824;2023-12-20T08:14:27;12.00;7.50;5.00
55304;PMS7003;65692;51.378;19.824;2023-12-20T08:16:53;9.75;6.50;5.00
55304;PMS7003;65692;51.378;19.824;2023-12-20T08:19:20;5.00;5.00;3.25
55304;PMS7003;65692;51.378;19.824;2023-12-20T08:21:47;5.75;4.50;2.50
55304;PMS7003;65692;51.378;19.824;2023-12-20T08:24:14;4.50;4.50;3.25
55304;PMS7003;65692;51.378;19.824;2023-12-20T08:26:40;6.50;6.50;5.25
55304;PMS7003;65692;51.378;19.824;2023-12-20T08:29:07;5.75;5.75;4.00
55304;PMS7003;65692;51.378;19.824;2023-12-20T08:31:34;9.25;8.50;5.75
55304;PMS7003;65692;51.378;19.824;2023-12-20T08:34:00;5.25;5.25;4.50
55304;PMS7003;65692;51.378;19.824;2023-12-20T08:36:29;6.75;6.00;5.00
55304;PMS7003;65692;51.378;19.824;2023-12-20T08:38:55;3.25;3.25;3.25
55304;PMS7003;65692;51.378;19.824;2023-12-20T08:41:22;7.50;5.00;3.50
55304;PMS7003;65692;51.378;19.824;2023-12-20T08:43:49;5.75;5.25;4.50
55304;PMS7003;65692;51.378;19.824;2023-12-20T08:46:16;10.00;6.50;6.00
55304;PMS7003;65692;51.378;19.824;2023-12-20T08:48:43;6.75;6.00;4.25
55304;PMS7003;65692;51.378;19.824;2023-12-20T08:51:10;5.50;5.00;3.50
55304;PMS7003;65692;51.378;19.824;2023-12-20T08:53:37;4.50;4.50;3.00
55304;PMS7003;65692;51.378;19.824;2023-12-20T08:56:04;6.25;5.25;4.50
55304;PMS7003;65692;51.378;19.824;2023-12-20T08:58:31;5.00;5.00;3.00
55304;PMS7003;65692;51.378;19.824;2023-12-20T09:00:58;5.00;5.00;5.00
55304;PMS7003;65692;51.378;19.824;2023-12-20T09:03:25;3.00;1.25;1.25
55304;PMS7003;65692;51.378;19.824;2023-12-20T09:05:51;6.75;4.00;2.50
55304;PMS7003;65692;51.378;19.824;2023-12-20T09:08:18;8.75;6.00;5.00
55304;PMS7003;65692;51.378;19.824;2023-12-20T09:10:45;6.75;5.00;3.00
55304;PMS7003;65692;51.378;19.824;2023-12-20T09:13:12;5.50;1.00;0.25
55304;PMS7003;65692;51.378;19.824;2023-12-20T09:15:48;7.50;7.50;6.50
55304;PMS7003;65692;51.378;19.824;2023-12-20T09:18:15;12.50;8.50;6.00
55304;PMS7003;65692;51.378;19.824;2023-12-20T09:20:41;12.25;6.50;5.50
55304;PMS7003;65692;51.378;19.824;2023-12-20T09:23:10;9.00;9.00;6.00
55304;PMS7003;65692;51.378;19.824;2023-12-20T09:25:37;9.00;6.75;5.75
55304;PMS7003;65692;51.378;19.824;2023-12-20T09:28:04;10.00;6.00;5.00
55304;PMS7003;65692;51.378;19.824;2023-12-20T09:30:31;9.50;7.00;6.00
55304;PMS7003;65692;51.378;19.824;2023-12-20T09:32:58;5.75;5.75;5.00
55304;PMS7003;65692;51.378;19.824;2023-12-20T09:35:24;3.00;3.00;2.75
55304;PMS7003;65692;51.378;19.824;2023-12-20T09:37:53;5.75;3.50;2.50
55304;PMS7003;65692;51.378;19.824;2023-12-20T09:40:19;6.75;3.50;2.25
55304;PMS7003;65692;51.378;19.824;2023-12-20T09:45:20;6.25;3.50;3.00
55304;PMS7003;65692;51.378;19.824;2023-12-20T09:47:49;6.00;3.00;3.00
55304;PMS7003;65692;51.378;19.824;2023-12-20T09:50:17;6.00;5.00;3.00
55304;PMS7003;65692;51.378;19.824;2023-12-20T09:52:44;3.00;3.00;3.00
55304;PMS7003;65692;51.378;19.824;2023-12-20T09:55:12;5.00;5.00;4.50
55304;PMS7003;65692;51.378;19.824;2023-12-20T09:57:39;3.00;2.00;1.75
55304;PMS7003;65692;51.378;19.824;2023-12-20T10:00:06;2.00;2.00;1.75
55304;PMS7003;65692;51.378;19.824;2023-12-20T10:02:33;2.50;2.00;2.00
55304;PMS7003;65692;51.378;19.824;2023-12-20T10:05:00;3.00;3.00;2.25
55304;PMS7003;65692;51.378;19.824;2023-12-20T10:07:27;5.00;2.00;2.00
55304;PMS7003;65692;51.378;19.824;2023-12-20T10:09:54;5.00;5.00;5.00
55304;PMS7003;65692;51.378;19.824;2023-12-20T10:12:22;2.75;2.75;2.00
55304;PMS7003;65692;51.378;19.824;2023-12-20T10:14:49;2.00;2.00;1.00
55304;PMS7003;65692;51.378;19.824;2023-12-20T10:17:15;3.00;2.00;1.50
55304;PMS7003;65692;51.378;19.824;2023-12-20T10:19:42;11.25;7.50;6.00
55304;PMS7003;65692;51.378;19.824;2023-12-20T10:22:09;2.75;1.00;1.00
55304;PMS7003;65692;51.378;19.824;2023-12-20T10:24:36;5.25;4.00;3.50
55304;PMS7003;65692;51.378;19.824;2023-12-20T10:27:03;1.00;0.00;0.00
55304;PMS7003;65692;51.378;19.824;2023-12-20T10:29:34;6.00;4.50;3.00
55304;PMS7003;65692;51.378;19.824;2023-12-20T10:32:23;44.50;31.00;20.50
55304;PMS7003;65692;51.378;19.824;2023-12-20T10:34:51;3.50;3.50;3.00
55304;PMS7003;65692;51.378;19.824;2023-12-20T10:37:18;5.00;5.00;3.00
55304;PMS7003;65692;51.378;19.824;2023-12-20T10:39:54;6.25;6.00;4.00
55304;PMS7003;65692;51.378;19.824;2023-12-20T10:42:25;5.75;5.50;4.50
55304;PMS7003;65692;51.378;19.824;2023-12-20T10:44:52;6.75;4.50;4.00
55304;PMS7003;65692;51.378;19.824;2023-12-20T10:47:20;5.00;5.00;3.00
55304;PMS7003;65692;51.378;19.824;2023-12-20T10:49:47;8.50;5.00;3.00
55304;PMS7003;65692;51.378;19.824;2023-12-20T10:52:15;7.00;7.00;6.00
55304;PMS7003;65692;51.378;19.824;2023-12-20T10:54:43;6.25;5.00;4.00
55304;PMS7003;65692;51.378;19.824;2023-12-20T10:57:11;5.50;2.00;2.00
55304;PMS7003;65692;51.378;19.824;2023-12-20T10:59:38;4.00;4.00;2.75
55304;PMS7003;65692;51.378;19.824;2023-12-20T11:02:06;4.00;3.00;2.50
55304;PMS7003;65692;51.378;19.824;2023-12-20T11:07:25;9.25;8.00;5.00
55304;PMS7003;65692;51.378;19.824;2023-12-20T11:09:58;4.75;4.50;3.00
55304;PMS7003;65692;51.378;19.824;2023-12-20T11:15:09;6.75;3.00;2.00
55304;PMS7003;65692;51.378;19.824;2023-12-20T11:17:38;5.00;5.00;2.75
55304;PMS7003;65692;51.378;19.824;2023-12-20T11:20:05;3.00;3.00;3.00
55304;PMS7003;65692;51.378;19.824;2023-12-20T11:22:33;6.25;5.50;3.50
55304;PMS7003;65692;51.378;19.824;2023-12-20T11:25:09;5.75;4.00;3.00
55304;PMS7003;65692;51.378;19.824;2023-12-20T11:27:40;2.25;2.25;2.00
55304;PMS7003;65692;51.378;19.824;2023-12-20T11:30:07;6.00;6.00;3.50
55304;PMS7003;65692;51.378;19.824;2023-12-20T11:32:35;6.00;6.00;5.00
55304;PMS7003;65692;51.378;19.824;2023-12-20T11:37:35;6.00;6.00;6.00
55304;PMS7003;65692;51.378;19.824;2023-12-20T11:40:06;7.00;6.00;5.25
55304;PMS7003;65692;51.378;19.824;2023-12-20T11:42:37;8.25;6.00;5.25
55304;PMS7003;65692;51.378;19.824;2023-12-20T11:45:04;12.50;8.00;6.25
55304;PMS7003;65692;51.378;19.824;2023-12-20T11:47:31;8.25;7.00;6.75
55304;PMS7003;65692;51.378;19.824;2023-12-20T11:49:58;8.25;7.00;6.00
55304;PMS7003;65692;51.378;19.824;2023-12-20T11:52:27;4.00;3.75;2.50
55304;PMS7003;65692;51.378;19.824;2023-12-20T11:54:53;7.00;6.00;4.75
55304;PMS7003;65692;51.378;19.824;2023-12-20T11:57:20;14.75;13.50;9.25
55304;PMS7003;65692;51.378;19.824;2023-12-20T11:59:46;5.50;5.50;4.50
55304;PMS7003;65692;51.378;19.824;2023-12-20T12:02:13;15.00;13.50;10.25
55304;PMS7003;65692;51.378;19.824;2023-12-20T12:04:43;15.75;14.00;9.25
55304;PMS7003;65692;51.378;19.824;2023-12-20T12:07:09;11.50;6.75;5.75
55304;PMS7003;65692;51.378;19.824;2023-12-20T12:09:36;20.75;18.75;13.25
55304;PMS7003;65692;51.378;19.824;2023-12-20T12:12:03;17.75;11.75;10.00
55304;PMS7003;65692;51.378;19.824;2023-12-20T12:14:30;9.00;6.00;5.00
55304;PMS7003;65692;51.378;19.824;2023-12-20T12:16:57;14.00;13.50;9.00
55304;PMS7003;65692;51.378;19.824;2023-12-20T12:19:24;27.25;24.25;18.25
55304;PMS7003;65692;51.378;19.824;2023-12-20T12:21:51;28.25;24.25;17.75
55304;PMS7003;65692;51.378;19.824;2023-12-20T12:24:21;34.75;28.00;19.75
55304;PMS7003;65692;51.378;19.824;2023-12-20T12:26:51;26.50;23.00;17.50
55304;PMS7003;65692;51.378;19.824;2023-12-20T12:29:18;19.00;14.50;10.50
55304;PMS7003;65692;51.378;19.824;2023-12-20T12:31:45;11.25;9.25;6.75
55304;PMS7003;65692;51.378;19.824;2023-12-20T12:34:12;6.75;6.75;2.00
55304;PMS7003;65692;51.378;19.824;2023-12-20T12:36:39;36.25;29.25;22.25
55304;PMS7003;65692;51.378;19.824;2023-12-20T12:39:06;15.75;14.25;9.25
55304;PMS7003;65692;51.378;19.824;2023-12-20T12:41:32;49.67;37.33;26.67
55304;PMS7003;65692;51.378;19.824;2023-12-20T12:43:59;18.50;14.00;10.75
55304;PMS7003;65692;51.378;19.824;2023-12-20T12:46:39;15.00;10.75;6.00
55304;PMS7003;65692;51.378;19.824;2023-12-20T12:49:06;12.25;10.00;7.50
55304;PMS7003;65692;51.378;19.824;2023-12-20T12:51:32;24.75;20.50;16.75
55304;PMS7003;65692;51.378;19.824;2023-12-20T12:53:59;35.50;29.25;22.00
55304;PMS7003;65692;51.378;19.824;2023-12-20T12:56:26;17.25;14.00;11.25
55304;PMS7003;65692;51.378;19.824;2023-12-20T12:58:52;9.00;8.75;7.00
55304;PMS7003;65692;51.378;19.824;2023-12-20T13:01:20;19.00;17.75;15.25
55304;PMS7003;65692;51.378;19.824;2023-12-20T13:03:47;14.50;9.50;7.00
55304;PMS7003;65692;51.378;19.824;2023-12-20T13:06:13;11.25;7.00;6.00
55304;PMS7003;65692;51.378;19.824;2023-12-20T13:08:40;17.75;11.75;9.50
55304;PMS7003;65692;51.378;19.824;2023-12-20T13:11:08;7.00;7.00;6.00
55304;PMS7003;65692;51.378;19.824;2023-12-20T13:13:35;13.00;11.00;8.75
55304;PMS7003;65692;51.378;19.824;2023-12-20T13:16:01;8.50;8.50;7.00
55304;PMS7003;65692;51.378;19.824;2023-12-20T13:18:28;10.75;6.75;5.00
55304;PMS7003;65692;51.378;19.824;2023-12-20T13:20:55;22.75;18.00;13.00
55304;PMS7003;65692;51.378;19.824;2023-12-20T13:23:21;12.00;9.00;5.50
55304;PMS7003;65692;51.378;19.824;2023-12-20T13:25:48;17.25;11.75;9.25
55304;PMS7003;65692;51.378;19.824;2023-12-20T13:28:15;12.75;8.25;6.00
55304;PMS7003;65692;51.378;19.824;2023-12-20T13:30:42;10.00;10.00;8.25
55304;PMS7003;65692;51.378;19.824;2023-12-20T13:33:09;6.50;5.50;3.50
55304;PMS7003;65692;51.378;19.824;2023-12-20T13:35:36;23.00;18.50;14.50
55304;PMS7003;65692;51.378;19.824;2023-12-20T13:38:03;10.50;6.00;4.00
55304;PMS7003;65692;51.378;19.824;2023-12-20T13:40:30;31.00;28.50;21.75
55304;PMS7003;65692;51.378;19.824;2023-12-20T13:42:57;20.00;16.25;11.50
55304;PMS7003;65692;51.378;19.824;2023-12-20T13:45:23;11.25;9.00;7.00
55304;PMS7003;65692;51.378;19.824;2023-12-20T13:47:51;10.25;8.25;6.25
55304;PMS7003;65692;51.378;19.824;2023-12-20T13:50:18;9.50;9.25;6.25
55304;PMS7003;65692;51.378;19.824;2023-12-20T13:52:45;35.25;31.50;22.75
55304;PMS7003;65692;51.378;19.824;2023-12-20T13:55:12;4.25;4.25;3.75
55304;PMS7003;65692;51.378;19.824;2023-12-20T13:57:39;16.75;16.00;10.75